Time;durP1;ratioP1;P1;durP2;ratioP2;P2;SDS_P1;SDS_P2;PMS_P1;PMS_P2;Temp;Humidity;BMP_temperature;BMP_pressure;BME280_temperature;BME280_humidity;BME280_pressure;Samples;Min_cycle;Max_cycle;Signal;HPM_P1;HPM_P2
2021/12/31 00:02:10;;;;;;;3.72;2.75;;;;;;;12.36;100.00;100661.94;5951265;29;20082;-89
2021/12/31 00:05:12;;;;;;;4.47;3.08;;;;;;;12.42;100.00;100666.59;5957603;29;20042;-90
2021/12/31 00:08:14;;;;;;;4.70;2.58;;;;;;;12.52;100.00;100667.50;5958754;29;20531;-90
2021/12/31 00:11:16;;;;;;;4.63;2.75;;;;;;;12.55;100.00;100669.81;5957767;29;20062;-90
2021/12/31 00:14:20;;;;;;;4.28;2.80;;;;;;;12.58;100.00;100672.16;5959032;29;20047;-89
2021/12/31 00:17:23;;;;;;;4.90;3.10;;;;;;;12.66;100.00;100667.13;5942186;29;20047;-90
2021/12/31 00:20:26;;;;;;;4.50;3.10;;;;;;;12.62;100.00;100675.31;5958489;29;20394;-90
2021/12/31 00:23:28;;;;;;;4.75;3.35;;;;;;;12.66;100.00;100672.31;5957377;29;20054;-89
2021/12/31 00:26:30;;;;;;;6.40;3.40;;;;;;;12.59;100.00;100680.75;5951519;29;20076;-90
2021/12/31 00:29:32;;;;;;;7.70;3.65;;;;;;;12.56;100.00;100660.25;5951641;29;20554;-89
2021/12/31 00:32:34;;;;;;;6.35;3.40;;;;;;;12.51;100.00;100655.44;5957757;29;20157;-90
2021/12/31 00:35:38;;;;;;;6.15;3.55;;;;;;;12.52;100.00;100677.03;5944628;29;20062;-90
2021/12/31 00:38:40;;;;;;;3.60;3.00;;;;;;;12.43;100.00;100647.50;5958573;29;20459;-90
2021/12/31 00:41:55;;;;;;;7.03;3.65;;;;;;;12.43;100.00;100657.88;5957879;29;20123;-90
2021/12/31 00:44:58;;;;;;;3.05;2.50;;;;;;;12.33;100.00;100651.81;5958677;29;20516;-90
2021/12/31 00:48:00;;;;;;;3.25;2.78;;;;;;;12.34;100.00;100654.28;5957233;29;20595;-90
2021/12/31 00:51:03;;;;;;;4.13;2.90;;;;;;;12.35;100.00;100655.94;5956795;29;20195;-90
2021/12/31 00:54:05;;;;;;;3.20;2.90;;;;;;;12.30;100.00;100647.72;5958008;29;20416;-91
2021/12/31 00:57:07;;;;;;;3.28;2.60;;;;;;;12.38;100.00;100663.47;5957128;29;20066;-90
2021/12/31 01:00:12;;;;;;;5.07;2.80;;;;;;;12.36;100.00;100662.75;5958110;29;20051;-90
2021/12/31 01:03:15;;;;;;;3.08;2.78;;;;;;;12.33;100.00;100654.41;5958426;29;20057;-90
2021/12/31 01:06:18;;;;;;;5.63;2.22;;;;;;;12.29;100.00;100662.44;5957947;29;20054;-90
2021/12/31 01:09:20;;;;;;;2.78;2.40;;;;;;;12.28;100.00;100680.75;5956361;29;20418;-90
2021/12/31 01:12:25;;;;;;;4.70;2.60;;;;;;;12.41;100.00;100675.34;5958152;29;20054;-90
2021/12/31 01:15:43;;;;;;;2.33;1.98;;;;;;;12.37;100.00;100674.81;5957850;29;20131;-90
2021/12/31 01:21:55;;;;;;;3.45;2.58;;;;;;;12.42;100.00;100685.63;5957445;29;20099;-90
2021/12/31 01:24:58;;;;;;;2.45;2.20;;;;;;;12.38;100.00;100686.00;5958144;29;20356;-90
2021/12/31 01:28:00;;;;;;;3.28;2.58;;;;;;;12.40;100.00;100689.31;5957415;29;20054;-90
2021/12/31 01:31:03;;;;;;;3.20;2.20;;;;;;;12.36;100.00;100682.72;5958679;29;20050;-90
2021/12/31 01:34:06;;;;;;;3.55;2.40;;;;;;;12.21;100.00;100688.22;5971584;29;20049;-90
2021/12/31 01:37:10;;;;;;;2.67;2.42;;;;;;;12.17;100.00;100686.00;5953809;29;20039;-90
2021/12/31 01:40:13;;;;;;;3.83;2.55;;;;;;;12.10;100.00;100693.50;5950134;29;20527;-90
2021/12/31 01:43:17;;;;;;;4.97;2.63;;;;;;;11.96;100.00;100692.03;5969075;29;20137;-90
2021/12/31 01:46:19;;;;;;;8.70;3.60;;;;;;;11.96;100.00;100717.97;5959740;29;20047;-90
2021/12/31 01:49:22;;;;;;;4.35;3.13;;;;;;;11.77;100.00;100703.03;5963537;29;20537;-92
2021/12/31 01:52:25;;;;;;;6.25;3.45;;;;;;;11.62;100.00;100699.09;5971704;29;20063;-92
2021/12/31 01:55:31;;;;;;;4.88;3.85;;;;;;;11.48;100.00;100687.28;5960912;29;20160;-91
2021/12/31 01:58:34;;;;;;;5.25;4.35;;;;;;;11.43;100.00;100690.22;5959633;29;20050;-92
2021/12/31 02:01:36;;;;;;;5.80;3.78;;;;;;;11.33;100.00;100691.91;5951932;29;20046;-92
2021/12/31 02:04:40;;;;;;;5.68;4.82;;;;;;;11.33;100.00;100689.31;5963517;29;20050;-93
2021/12/31 02:07:42;;;;;;;6.72;5.10;;;;;;;11.30;100.00;100697.31;5952447;29;20050;-93
2021/12/31 02:10:44;;;;;;;7.00;5.03;;;;;;;11.22;100.00;100686.75;5955840;29;20131;-91
2021/12/31 02:13:53;;;;;;;8.15;6.03;;;;;;;11.23;100.00;100688.41;5960318;29;20167;-92
2021/12/31 02:16:56;;;;;;;9.35;6.55;;;;;;;11.17;100.00;100694.06;5951530;29;20051;-92
2021/12/31 02:20:05;;;;;;;7.53;6.72;;;;;;;11.13;100.00;100684.88;5950584;29;20043;-92
2021/12/31 02:23:20;;;;;;;9.13;6.82;;;;;;;11.12;100.00;100686.63;5954908;29;20122;-92
2021/12/31 02:26:22;;;;;;;7.28;6.57;;;;;;;11.13;100.00;100677.09;5959066;29;20108;-92
2021/12/31 02:29:25;;;;;;;8.32;6.70;;;;;;;11.04;100.00;100688.19;5954468;29;20568;-92
2021/12/31 02:32:27;;;;;;;7.95;7.07;;;;;;;10.94;100.00;100688.91;5956270;29;20766;-92
2021/12/31 02:35:32;;;;;;;8.80;6.80;;;;;;;11.07;100.00;100699.13;5950504;29;20134;-92
2021/12/31 02:38:34;;;;;;;7.30;6.28;;;;;;;11.12;100.00;100704.78;5946864;29;20047;-92
2021/12/31 02:41:36;;;;;;;8.20;7.40;;;;;;;11.15;100.00;100699.34;5959337;29;20055;-92
2021/12/31 02:44:39;;;;;;;10.07;7.40;;;;;;;11.06;100.00;100700.09;5954428;29;20050;-92
2021/12/31 02:47:47;;;;;;;10.23;7.40;;;;;;;11.16;100.00;100710.56;5957826;29;20065;-91
2021/12/31 02:50:50;;;;;;;8.75;7.88;;;;;;;11.27;100.00;100709.69;5966770;29;20050;-92
2021/12/31 02:53:54;;;;;;;9.52;8.57;;;;;;;11.28;100.00;100711.34;5963755;29;20046;-92
2021/12/31 02:56:57;;;;;;;10.48;8.13;;;;;;;11.29;100.00;100708.63;5969120;29;20070;-93
2021/12/31 03:00:00;;;;;;;11.57;9.40;;;;;;;11.30;100.00;100705.09;5952601;29;20066;-92
2021/12/31 03:03:06;;;;;;;14.30;10.27;;;;;;;11.35;100.00;100707.31;5962329;29;20529;-92
2021/12/31 03:06:10;;;;;;;11.32;10.02;;;;;;;11.34;100.00;100706.50;5967930;29;20054;-92
2021/12/31 03:09:15;;;;;;;13.15;9.63;;;;;;;11.43;100.00;100699.78;5965246;29;20047;-92
2021/12/31 03:12:18;;;;;;;13.57;10.57;;;;;;;11.44;100.00;100701.41;5981274;29;20209;-91
2021/12/31 03:15:21;;;;;;;13.18;9.60;;;;;;;11.32;100.00;100692.00;5973511;29;20050;-92
2021/12/31 03:18:23;;;;;;;11.95;10.02;;;;;;;11.41;100.00;100697.28;5970684;29;20051;-92
2021/12/31 03:21:26;;;;;;;10.13;9.05;;;;;;;11.40;100.00;100687.88;5972531;29;20050;-92
2021/12/31 03:24:28;;;;;;;11.23;9.73;;;;;;;11.45;100.00;100687.50;5972849;29;20130;-92
2021/12/31 03:27:30;;;;;;;10.43;9.05;;;;;;;11.40;100.00;100685.28;5960507;29;20049;-92
2021/12/31 03:30:33;;;;;;;11.07;9.00;;;;;;;11.46;100.00;100686.56;5973191;29;20046;-92
2021/12/31 03:33:37;;;;;;;10.23;8.65;;;;;;;11.42;100.00;100680.78;5960392;29;20066;-92
2021/12/31 03:36:43;;;;;;;10.20;8.88;;;;;;;11.46;100.00;100680.56;5984634;29;20051;-92
2021/12/31 03:39:45;;;;;;;9.65;8.65;;;;;;;11.53;100.00;100677.34;5974015;29;20071;-92
2021/12/31 03:42:47;;;;;;;9.55;8.43;;;;;;;11.56;100.00;100674.50;5966510;29;20075;-92
2021/12/31 03:45:51;;;;;;;12.50;8.82;;;;;;;11.56;100.00;100681.47;5968377;29;20047;-92
2021/12/31 03:48:53;;;;;;;11.60;9.07;;;;;;;11.55;100.00;100687.56;5958164;29;20058;-92
2021/12/31 03:51:55;;;;;;;12.23;8.80;;;;;;;11.56;100.00;100686.66;5963925;29;20043;-92
2021/12/31 03:54:57;;;;;;;9.88;8.35;;;;;;;11.50;100.00;100680.19;5962908;29;20047;-92
2021/12/31 03:58:00;;;;;;;9.30;8.35;;;;;;;11.57;100.00;100688.28;5961938;29;20059;-91
2021/12/31 04:01:03;;;;;;;12.40;9.52;;;;;;;11.51;100.00;100688.78;5988551;29;20050;-92
2021/12/31 04:04:08;;;;;;;10.73;8.90;;;;;;;11.55;100.00;100685.84;5961757;29;20042;-92
2021/12/31 04:07:10;;;;;;;12.18;8.60;;;;;;;11.57;100.00;100690.88;5960342;29;20057;-91
2021/12/31 04:10:12;;;;;;;9.73;8.73;;;;;;;11.57;100.00;100686.50;5956616;29;20055;-91
2021/12/31 04:13:14;;;;;;;10.50;8.52;;;;;;;11.52;100.00;100686.06;5959729;29;20042;-92
2021/12/31 04:16:16;;;;;;;9.80;8.77;;;;;;;11.62;100.00;100683.53;5962331;29;20054;-91
2021/12/31 04:19:18;;;;;;;10.23;8.45;;;;;;;11.69;100.00;100683.88;5956183;29;20145;-92
2021/12/31 04:22:22;;;;;;;10.73;8.52;;;;;;;11.57;100.00;100670.94;5952111;29;20059;-92
2021/12/31 04:25:25;;;;;;;11.70;7.90;;;;;;;11.60;100.00;100665.53;5958831;29;20054;-91
2021/12/31 04:28:28;;;;;;;10.05;7.72;;;;;;;11.66;100.00;100664.22;5954763;29;20047;-92
2021/12/31 04:31:31;;;;;;;9.65;7.13;;;;;;;11.69;100.00;100663.13;5975561;29;20103;-91
2021/12/31 04:34:33;;;;;;;7.10;6.22;;;;;;;11.67;100.00;100647.69;5961900;29;20051;-91
2021/12/31 04:37:35;;;;;;;10.18;6.30;;;;;;;11.79;100.00;100670.03;5948333;29;20425;-91
2021/12/31 04:40:37;;;;;;;10.32;5.65;;;;;;;11.84;100.00;100656.69;5954457;29;20075;-91
2021/12/31 04:43:39;;;;;;;8.88;5.57;;;;;;;11.90;100.00;100664.00;5950838;29;20047;-91
2021/12/31 04:46:41;;;;;;;5.00;4.50;;;;;;;11.80;100.00;100663.91;5951510;29;20055;-91
2021/12/31 04:49:43;;;;;;;7.32;5.00;;;;;;;11.78;100.00;100678.78;5955441;29;20078;-91
2021/12/31 04:52:45;;;;;;;8.85;4.55;;;;;;;11.91;100.00;100667.44;5955573;29;20122;-91
2021/12/31 04:55:48;;;;;;;7.68;3.80;;;;;;;11.96;100.00;100666.09;5953503;29;20050;-91
2021/12/31 04:58:50;;;;;;;6.55;3.75;;;;;;;11.95;100.00;100674.84;5945044;29;20873;-91
2021/12/31 05:01:52;;;;;;;5.32;3.33;;;;;;;11.93;100.00;100675.91;5951465;29;20522;-91
2021/12/31 05:04:54;;;;;;;6.93;4.53;;;;;;;11.94;100.00;100682.72;5955733;29;20058;-91
2021/12/31 05:07:57;;;;;;;6.22;3.53;;;;;;;11.94;100.00;100674.94;5961672;29;20192;-91
2021/12/31 05:10:59;;;;;;;8.68;3.38;;;;;;;11.89;100.00;100664.13;5955670;29;20043;-91
2021/12/31 05:14:03;;;;;;;6.95;3.38;;;;;;;11.90;100.00;100655.38;5957276;29;20047;-91
2021/12/31 05:17:05;;;;;;;4.82;3.30;;;;;;;11.90;100.00;100657.97;5960488;29;20458;-91
2021/12/31 05:20:08;;;;;;;5.78;2.80;;;;;;;11.89;100.00;100659.75;5959162;29;20055;-91
2021/12/31 05:23:09;;;;;;;5.15;2.78;;;;;;;11.94;100.00;100669.75;5962571;29;20050;-91
2021/12/31 05:26:11;;;;;;;3.67;2.10;;;;;;;12.13;100.00;100663.88;5959388;29;20513;-91
2021/12/31 05:29:13;;;;;;;5.40;2.38;;;;;;;12.14;100.00;100663.72;5954006;29;20050;-91
2021/12/31 05:32:15;;;;;;;3.17;2.08;;;;;;;12.14;100.00;100658.53;5951475;29;20589;-91
2021/12/31 05:35:17;;;;;;;3.05;2.10;;;;;;;12.21;100.00;100659.69;5955341;29;20047;-91
2021/12/31 05:38:20;;;;;;;3.10;2.30;;;;;;;12.21;100.00;100645.88;5958534;29;20603;-91
2021/12/31 05:41:21;;;;;;;5.40;2.28;;;;;;;12.13;100.00;100662.09;5960989;29;20050;-91
2021/12/31 05:44:24;;;;;;;5.00;2.22;;;;;;;12.11;100.00;100648.44;5951162;29;20055;-90
2021/12/31 05:47:26;;;;;;;3.22;2.08;;;;;;;12.20;100.00;100647.66;5953493;29;20044;-91
2021/12/31 05:50:28;;;;;;;3.20;2.10;;;;;;;12.18;100.00;100657.34;5954484;29;20058;-91
2021/12/31 05:53:31;;;;;;;4.43;1.80;;;;;;;12.16;100.00;100656.66;5954465;29;20051;-91
2021/12/31 05:56:33;;;;;;;4.32;1.90;;;;;;;12.15;100.00;100652.44;5952155;29;20054;-91
2021/12/31 05:59:35;;;;;;;4.88;2.10;;;;;;;12.15;100.00;100665.41;5950738;29;20051;-91
2021/12/31 06:02:37;;;;;;;4.13;1.77;;;;;;;12.26;100.00;100652.31;5946497;29;20509;-91
2021/12/31 06:05:39;;;;;;;3.45;1.70;;;;;;;12.30;100.00;100642.53;5953068;29;20146;-90
2021/12/31 06:08:42;;;;;;;2.85;1.52;;;;;;;12.34;100.00;100643.06;5951294;29;20055;-90
2021/12/31 06:11:44;;;;;;;4.47;1.73;;;;;;;12.31;100.00;100644.16;5957545;29;20348;-90
2021/12/31 06:14:46;;;;;;;3.08;1.65;;;;;;;12.32;100.00;100640.59;5959288;29;20055;-90
2021/12/31 06:17:50;;;;;;;3.95;1.67;;;;;;;12.33;100.00;100647.44;5945636;29;20494;-90
2021/12/31 06:20:52;;;;;;;2.58;1.60;;;;;;;12.24;100.00;100649.03;5946584;29;20055;-90
2021/12/31 06:23:54;;;;;;;1.88;1.38;;;;;;;12.19;100.00;100645.19;5959296;29;20153;-90
2021/12/31 06:27:03;;;;;;;2.72;1.63;;;;;;;12.22;100.00;100629.34;5959005;29;20042;-90
2021/12/31 06:30:06;;;;;;;2.85;1.38;;;;;;;12.32;100.00;100634.59;5958777;29;20047;-90
2021/12/31 06:33:08;;;;;;;3.85;1.40;;;;;;;12.22;100.00;100618.97;5971761;29;20051;-90
2021/12/31 06:36:10;;;;;;;3.28;1.83;;;;;;;12.24;100.00;100623.09;5955111;29;20035;-90
2021/12/31 06:39:12;;;;;;;1.70;1.35;;;;;;;12.29;100.00;100620.09;5952082;29;20553;-90
2021/12/31 06:42:14;;;;;;;2.70;1.30;;;;;;;12.24;100.00;100628.28;5960106;29;20051;-90
2021/12/31 06:45:16;;;;;;;3.05;1.10;;;;;;;12.29;100.00;100640.88;5958164;29;20235;-90
2021/12/31 06:48:18;;;;;;;4.30;1.30;;;;;;;12.34;100.00;100627.50;5958962;29;20043;-90
2021/12/31 06:51:20;;;;;;;2.78;1.30;;;;;;;12.33;100.00;100637.06;5958567;29;20421;-90
2021/12/31 06:54:22;;;;;;;4.65;1.48;;;;;;;12.43;100.00;100626.72;5958316;29;20114;-90
2021/12/31 06:57:24;;;;;;;3.05;1.45;;;;;;;12.44;100.00;100625.75;5949307;29;20047;-89
2021/12/31 07:00:27;;;;;;;3.25;1.70;;;;;;;12.39;100.00;100626.16;5954452;29;20812;-90
2021/12/31 07:03:29;;;;;;;3.33;1.30;;;;;;;12.33;100.00;100623.28;5959037;29;20047;-90
2021/12/31 07:06:30;;;;;;;4.22;1.40;;;;;;;12.27;100.00;100614.22;5953297;29;20046;-90
2021/12/31 07:09:46;;;;;;;4.35;1.35;;;;;;;12.24;100.00;100610.09;5959257;29;20042;-90
2021/12/31 07:12:48;;;;;;;2.20;1.17;;;;;;;12.22;100.00;100612.03;5958993;29;20058;-89
2021/12/31 07:15:50;;;;;;;2.97;1.58;;;;;;;12.12;100.00;100612.91;5954526;29;20048;-90
2021/12/31 07:18:52;;;;;;;4.28;1.48;;;;;;;11.96;100.00;100609.00;5957227;29;20135;-90
2021/12/31 07:21:54;;;;;;;3.05;1.40;;;;;;;11.84;100.00;100615.19;5953495;29;20046;-90
2021/12/31 07:24:56;;;;;;;4.25;1.40;;;;;;;11.70;100.00;100623.28;5959416;29;21582;-90
2021/12/31 07:27:58;;;;;;;3.50;1.33;;;;;;;11.67;100.00;100608.78;5951122;29;20043;-90
2021/12/31 07:31:00;;;;;;;3.85;1.58;;;;;;;11.50;100.00;100605.03;5958712;29;20160;-90
2021/12/31 07:34:03;;;;;;;2.28;1.30;;;;;;;11.47;100.00;100607.03;5958564;29;20039;-89
2021/12/31 07:37:05;;;;;;;3.50;1.38;;;;;;;11.38;100.00;100604.25;5957747;29;20046;-90
2021/12/31 07:40:10;;;;;;;3.63;1.50;;;;;;;11.33;100.00;100600.34;5956949;29;20047;-90
2021/12/31 07:43:13;;;;;;;2.03;1.40;;;;;;;11.37;100.00;100615.53;5958706;29;20047;-90
2021/12/31 07:46:14;;;;;;;3.60;1.55;;;;;;;11.37;100.00;100601.75;5950086;29;20054;-90
2021/12/31 07:49:16;;;;;;;3.92;1.48;;;;;;;11.31;100.00;100600.50;5957876;29;20045;-90
2021/12/31 07:52:18;;;;;;;2.67;1.42;;;;;;;11.33;100.00;100606.38;5957435;29;20058;-90
2021/12/31 07:55:20;;;;;;;2.67;1.30;;;;;;;11.34;100.00;100605.44;5956453;29;20059;-90
2021/12/31 07:58:24;;;;;;;2.05;1.70;;;;;;;11.31;100.00;100615.22;5954983;29;20051;-90
2021/12/31 08:01:26;;;;;;;2.92;1.80;;;;;;;11.23;100.00;100627.97;5947748;29;20055;-90
2021/12/31 08:04:28;;;;;;;3.28;1.40;;;;;;;11.30;100.00;100621.34;5956578;29;20049;-90
2021/12/31 08:07:31;;;;;;;2.97;1.42;;;;;;;11.28;100.00;100636.19;5958549;29;20047;-90
2021/12/31 08:10:34;;;;;;;1.88;1.38;;;;;;;11.35;100.00;100630.41;5958655;29;20071;-90
2021/12/31 08:13:56;;;;;;;2.55;1.30;;;;;;;11.43;100.00;100635.78;5958103;29;20521;-90
2021/12/31 08:17:11;;;;;;;3.72;1.25;;;;;;;11.38;100.00;100624.97;5958130;29;20400;-90
2021/12/31 08:20:13;;;;;;;2.95;1.77;;;;;;;11.47;100.00;100618.22;5958443;29;20131;-90
2021/12/31 08:23:15;;;;;;;2.15;1.40;;;;;;;11.55;100.00;100621.03;5957965;29;20620;-90
2021/12/31 08:26:17;;;;;;;1.80;1.13;;;;;;;11.66;100.00;100621.91;5958055;29;20050;-90
2021/12/31 08:29:19;;;;;;;1.77;1.33;;;;;;;11.65;100.00;100623.66;5953970;29;20061;-90
2021/12/31 08:32:21;;;;;;;3.80;1.70;;;;;;;11.76;100.00;100623.59;5953844;29;20544;-90
2021/12/31 08:35:24;;;;;;;2.38;1.50;;;;;;;11.82;100.00;100630.06;5938934;29;20121;-90
2021/12/31 08:38:26;;;;;;;2.35;1.55;;;;;;;11.99;100.00;100631.28;5968587;29;20088;-90
2021/12/31 08:41:28;;;;;;;2.10;1.38;;;;;;;12.20;100.00;100628.69;5956037;29;20050;-90
2021/12/31 08:44:50;;;;;;;2.85;1.58;;;;;;;12.33;100.00;100623.28;5951921;29;20111;-90
2021/12/31 08:48:08;;;;;;;4.68;1.70;;;;;;;12.35;100.00;100621.38;5957492;29;20070;-90
2021/12/31 08:51:11;;;;;;;5.57;1.67;;;;;;;12.49;100.00;100626.19;5938456;29;20039;-91
2021/12/31 08:54:15;;;;;;;2.83;1.48;;;;;;;12.49;100.00;100615.81;5953767;29;20055;-89
2021/12/31 08:57:17;;;;;;;3.47;1.33;;;;;;;12.54;100.00;100613.63;5957605;29;20053;-90
2021/12/31 09:00:19;;;;;;;2.63;1.58;;;;;;;12.53;100.00;100617.19;5956415;29;20058;-90
2021/12/31 09:03:22;;;;;;;5.15;1.40;;;;;;;12.56;100.00;100624.72;5950965;29;20047;-90
2021/12/31 09:06:24;;;;;;;1.77;1.45;;;;;;;12.62;100.00;100631.16;5955778;29;20449;-90
2021/12/31 09:09:26;;;;;;;2.80;1.60;;;;;;;12.61;100.00;100624.31;5963493;29;20038;-90
2021/12/31 09:12:37;;;;;;;3.35;1.38;;;;;;;12.66;100.00;100614.38;5957163;29;20047;-90
2021/12/31 09:15:40;;;;;;;2.42;1.30;;;;;;;12.71;100.00;100626.00;5959740;29;20046;-90
2021/12/31 09:18:42;;;;;;;2.08;1.10;;;;;;;12.78;100.00;100639.28;5957288;29;20413;-90
2021/12/31 09:21:45;;;;;;;4.13;1.70;;;;;;;12.83;100.00;100649.28;5950546;29;20053;-90
2021/12/31 09:24:48;;;;;;;4.55;1.27;;;;;;;12.75;100.00;100646.53;5955739;29;20135;-90
2021/12/31 09:27:50;;;;;;;2.10;1.20;;;;;;;12.69;100.00;100643.50;5957027;29;20195;-90
2021/12/31 09:30:52;;;;;;;1.85;1.60;;;;;;;12.68;100.00;100647.03;5958324;29;20043;-90
2021/12/31 09:33:54;;;;;;;1.25;1.15;;;;;;;12.62;100.00;100652.78;5954753;29;20050;-90
2021/12/31 09:36:56;;;;;;;2.28;1.35;;;;;;;12.58;100.00;100659.16;5956415;29;20054;-90
2021/12/31 09:39:58;;;;;;;1.98;1.77;;;;;;;12.46;100.00;100648.03;5958002;29;20598;-90
2021/12/31 09:43:13;;;;;;;2.28;1.42;;;;;;;12.56;100.00;100668.03;5952281;29;20647;-89
2021/12/31 09:46:15;;;;;;;2.20;1.30;;;;;;;12.58;100.00;100661.78;5955613;29;20511;-89
2021/12/31 09:49:18;;;;;;;3.03;1.67;;;;;;;12.64;100.00;100663.00;5957123;29;20131;-89
2021/12/31 09:52:30;;;;;;;2.30;1.60;;;;;;;12.70;100.00;100650.34;5961099;29;20046;-89
2021/12/31 09:56:07;;;;;;;1.60;1.50;;;;;;;12.78;100.00;100651.44;5963873;29;20082;-89
2021/12/31 09:59:12;;;;;;;1.50;1.40;;;;;;;12.86;100.00;100659.41;5959727;29;20053;-89
2021/12/31 10:02:15;;;;;;;5.25;1.67;;;;;;;12.76;100.00;100646.38;5947620;29;20415;-89
2021/12/31 10:05:18;;;;;;;3.58;2.50;;;;;;;12.75;100.00;100665.53;5959256;29;20053;-89
2021/12/31 10:08:29;;;;;;;2.75;1.92;;;;;;;12.75;100.00;100669.91;5966441;29;20051;-89
2021/12/31 10:11:30;;;;;;;3.20;1.70;;;;;;;12.69;100.00;100648.69;5970052;29;20046;-88
2021/12/31 10:14:35;;;;;;;2.35;1.60;;;;;;;12.70;100.00;100645.13;5963272;29;20057;-89
2021/12/31 10:17:37;;;;;;;2.13;1.90;;;;;;;12.74;100.00;100648.28;5960236;29;20494;-89
2021/12/31 10:20:51;;;;;;;8.45;2.20;;;;;;;12.88;100.00;100654.91;5962900;29;20043;-88
2021/12/31 10:23:53;;;;;;;2.20;2.00;;;;;;;12.98;100.00;100666.13;5961920;29;20051;-89
2021/12/31 10:26:57;;;;;;;4.00;2.22;;;;;;;13.11;100.00;100655.47;5962186;29;20054;-89
2021/12/31 10:30:05;;;;;;;3.40;2.30;;;;;;;13.15;100.00;100660.28;5959174;29;20054;-89
2021/12/31 10:33:08;;;;;;;3.10;2.20;;;;;;;13.14;100.00;100647.41;5938519;29;20054;-89
2021/12/31 10:36:31;;;;;;;2.80;2.22;;;;;;;13.13;100.00;100650.97;5951116;29;20047;-89
2021/12/31 10:39:37;;;;;;;2.28;2.17;;;;;;;13.17;100.00;100646.31;5963957;29;20058;-88
2021/12/31 10:42:41;;;;;;;2.60;2.40;;;;;;;13.10;100.00;100652.06;5960146;29;20805;-88
2021/12/31 10:46:11;;;;;;;5.15;2.20;;;;;;;13.12;100.00;100636.34;5963176;29;20051;-89
2021/12/31 10:49:13;;;;;;;4.10;2.70;;;;;;;13.05;100.00;100623.06;5960576;29;20535;-89
2021/12/31 10:52:25;;;;;;;2.63;2.40;;;;;;;13.06;100.00;100619.50;5967456;29;20130;-89
2021/12/31 10:55:30;;;;;;;4.13;2.40;;;;;;;13.10;100.00;100620.06;5959328;29;20457;-89
2021/12/31 10:58:32;;;;;;;3.42;2.40;;;;;;;13.12;100.00;100612.97;5949779;29;20114;-89
2021/12/31 11:01:34;;;;;;;2.50;2.30;;;;;;;13.26;100.00;100609.13;5960536;29;20126;-88
2021/12/31 11:04:36;;;;;;;3.45;2.22;;;;;;;13.34;100.00;100610.13;5954359;29;20081;-89
2021/12/31 11:07:40;;;;;;;2.75;2.20;;;;;;;13.31;100.00;100628.56;5958516;29;20576;-89
2021/12/31 11:11:04;;;;;;;2.33;2.10;;;;;;;13.32;100.00;100613.81;5945936;29;20070;-89
2021/12/31 11:14:06;;;;;;;2.58;2.38;;;;;;;13.28;100.00;100626.25;5961928;29;20459;-89
2021/12/31 11:17:08;;;;;;;2.88;2.38;;;;;;;13.35;100.00;100621.34;5961280;29;20050;-89
2021/12/31 11:20:19;;;;;;;8.07;2.45;;;;;;;13.45;100.00;100631.75;5962249;29;20054;-89
2021/12/31 11:23:31;;;;;;;4.45;2.40;;;;;;;13.38;100.00;100628.84;5966735;29;20058;-89
2021/12/31 11:26:33;;;;;;;2.85;2.28;;;;;;;13.34;100.00;100622.28;5972445;29;20052;-90
2021/12/31 11:29:39;;;;;;;4.43;2.50;;;;;;;13.32;100.00;100624.22;5966388;29;20465;-89
2021/12/31 11:33:00;;;;;;;2.85;2.00;;;;;;;13.31;100.00;100594.78;5960791;29;20125;-88
2021/12/31 11:36:05;;;;;;;;;;;;;;;13.27;100.00;100590.00;5957502;29;20035;-90
2021/12/31 11:39:26;;;;;;;3.55;2.20;;;;;;;13.35;100.00;100588.34;5962892;29;19940;-88
2021/12/31 11:42:28;;;;;;;3.78;2.15;;;;;;;13.33;100.00;100585.06;5957931;29;20181;-88
2021/12/31 11:45:30;;;;;;;2.22;1.83;;;;;;;13.37;100.00;100590.00;5957693;29;20065;-88
2021/12/31 11:48:53;;;;;;;3.03;2.15;;;;;;;13.31;100.00;100583.56;5959867;29;20055;-89
2021/12/31 11:51:57;;;;;;;1.88;1.77;;;;;;;13.30;100.00;100587.94;5960130;29;20054;-88
2021/12/31 11:55:19;;;;;;;3.38;1.73;;;;;;;13.30;100.00;100593.16;5963107;29;20046;-88
2021/12/31 11:58:40;;;;;;;2.17;1.75;;;;;;;13.18;100.00;100594.22;5956458;29;20058;-88
2021/12/31 12:01:54;;;;;;;1.70;1.60;;;;;;;13.20;100.00;100594.91;5945189;29;20071;-89
2021/12/31 12:05:16;;;;;;;2.28;1.52;;;;;;;13.14;100.00;100575.47;5948917;29;20433;-88
2021/12/31 12:08:26;;;;;;;2.40;1.67;;;;;;;13.12;100.00;100585.19;5950988;29;20113;-89
2021/12/31 12:12:05;;;;;;;1.92;1.48;;;;;;;13.05;100.00;100571.09;5961978;29;20050;-89
2021/12/31 12:15:31;;;;;;;1.55;1.45;;;;;;;13.06;100.00;100582.31;5961619;29;20520;-88
2021/12/31 12:18:54;;;;;;;2.10;1.40;;;;;;;13.00;100.00;100575.88;5959975;29;20057;-88
2021/12/31 12:21:56;;;;;;;2.15;1.40;;;;;;;13.00;100.00;100565.47;5957206;29;20050;-88
2021/12/31 12:25:05;;;;;;;2.90;1.20;;;;;;;12.95;100.00;100557.28;5954903;29;20067;-88
2021/12/31 12:28:09;;;;;;;1.25;1.13;;;;;;;12.92;100.00;100547.16;5960913;29;20042;-88
2021/12/31 12:31:24;;;;;;;3.95;1.40;;;;;;;12.90;100.00;100542.09;5956823;29;20051;-89
2021/12/31 12:34:32;;;;;;;2.35;1.30;;;;;;;12.85;100.00;100533.06;5958096;29;20234;-88
2021/12/31 12:37:34;;;;;;;2.25;1.35;;;;;;;12.83;100.00;100533.19;5959105;29;20051;-88
2021/12/31 12:40:41;;;;;;;2.45;1.20;;;;;;;12.83;100.00;100528.00;5963438;29;20043;-89
2021/12/31 12:43:57;;;;;;;3.08;1.23;;;;;;;12.85;100.00;100513.09;5961071;29;20529;-89
2021/12/31 12:47:00;;;;;;;1.10;1.00;;;;;;;12.90;100.00;100525.69;5961599;29;20158;-89
2021/12/31 12:50:07;;;;;;;1.98;1.30;;;;;;;12.92;100.00;100505.59;5961555;29;20066;-89
2021/12/31 12:53:18;;;;;;;1.17;1.00;;;;;;;12.93;100.00;100504.63;5966691;29;20073;-89
2021/12/31 12:56:21;;;;;;;2.47;1.20;;;;;;;13.07;100.00;100480.81;5960725;29;20135;-88
2021/12/31 12:59:23;;;;;;;1.98;1.10;;;;;;;13.23;100.00;100469.84;5958471;29;20502;-88
2021/12/31 13:02:44;;;;;;;1.40;1.20;;;;;;;13.24;100.00;100471.50;5958406;29;20081;-88
2021/12/31 13:05:46;;;;;;;1.97;1.50;;;;;;;13.17;100.00;100459.19;5959220;29;20053;-88
2021/12/31 13:09:00;;;;;;;2.50;1.40;;;;;;;13.10;100.00;100464.13;5958965;29;20296;-89
2021/12/31 13:12:04;;;;;;;1.13;1.02;;;;;;;13.12;100.00;100454.44;5960173;29;20465;-88
2021/12/31 13:15:06;;;;;;;1.40;1.10;;;;;;;13.06;100.00;100478.34;5959328;29;20115;-88
2021/12/31 13:18:09;;;;;;;1.30;1.10;;;;;;;13.04;100.00;100475.91;5959149;29;20035;-88
2021/12/31 13:21:12;;;;;;;1.50;1.20;;;;;;;13.08;100.00;100492.84;5958976;29;20336;-88
2021/12/31 13:24:19;;;;;;;2.70;1.10;;;;;;;13.07;100.00;100491.22;5950870;29;20047;-89
2021/12/31 13:27:21;;;;;;;1.67;1.30;;;;;;;13.08;100.00;100492.84;5958527;29;20162;-89
2021/12/31 13:30:24;;;;;;;1.38;1.27;;;;;;;13.03;100.00;100494.22;5963192;29;20096;-88
2021/12/31 13:33:29;;;;;;;1.10;0.95;;;;;;;12.95;100.00;100487.13;5961831;29;20054;-88
2021/12/31 13:36:53;;;;;;;2.47;1.15;;;;;;;12.86;100.00;100480.16;5974319;29;20042;-88
2021/12/31 13:40:04;;;;;;;1.15;1.05;;;;;;;12.86;100.00;100474.94;5970675;29;20102;-89
2021/12/31 13:43:08;;;;;;;1.77;1.15;;;;;;;12.81;100.00;100469.34;5967487;29;20045;-89
2021/12/31 13:46:15;;;;;;;1.20;1.10;;;;;;;12.87;100.00;100467.03;5968224;29;20069;-89
2021/12/31 13:49:23;;;;;;;1.20;1.10;;;;;;;12.98;100.00;100488.63;5970601;29;20416;-88
2021/12/31 13:52:43;;;;;;;2.15;1.42;;;;;;;13.04;100.00;100496.69;5970796;29;20054;-89
2021/12/31 13:55:47;;;;;;;1.52;1.40;;;;;;;13.14;100.00;100501.88;5976005;29;20043;-88
2021/12/31 13:58:50;;;;;;;2.22;1.08;;;;;;;13.31;100.00;100492.56;5980257;29;20053;-88
2021/12/31 14:02:19;;;;;;;3.67;1.33;;;;;;;13.48;100.00;100489.25;5973563;29;20403;-88
2021/12/31 14:05:26;;;;;;;2.53;1.33;;;;;;;13.62;100.00;100479.38;5969083;29;20050;-88
2021/12/31 14:11:52;;;;;;;1.63;1.20;;;;;;;13.42;100.00;100476.81;5975189;29;20154;-88
2021/12/31 14:15:08;;;;;;;1.60;1.40;;;;;;;13.25;100.00;100467.13;5984622;29;20417;-89
2021/12/31 14:18:12;;;;;;;3.17;1.30;;;;;;;13.13;100.00;100453.44;5973412;29;20053;-89